• Join FlightAware (Why Join?)
  • Login
  • US Flag 
06:54AM EDT


 

Airport Tracker/Info


-or-


 

Live Flight TrackerFlight Track Log ✈ SKW5646 ✈ 05-May-2013 ✈ KSBA - KSFO

Flight Track Log - Related Links

Times and Time Zones

All times are in EDT time to prevent confusion due to time zone crossing. See the SKW5646 flight status page for this flight to view local times or setup timezone preferences in your user account.

Time Position Orientation Groundspeed Altitude Reporting Facility
EDT Latitude Longitude Course Direction KTS MPH feet Rate Location/Type
05:33PM 34.4219 -119.8133 139° Southeast 135 155 1,400  Level Los Angeles Center
05:34PM 34.3994 -119.7894 139° Southeast 142 163 2,500 1,620 Climbing Los Angeles Center
05:35PM 34.3869 -119.7761 139° Southeast 152 175 3,400 1,440 Climbing Los Angeles Center
05:36PM 34.3531 -119.7503 148° Southeast 167 192 4,800 1,260 Climbing Los Angeles Center
05:37PM 34.3342 -119.8153 251° West 213 245 6,100 1,860 Climbing Los Angeles Center
05:38PM 34.3258 -119.9053 264° West 224 258 8,700 2,100 Climbing Los Angeles Center
05:39PM 34.3575 -119.9619 304° West 211 243 10,500 1,680 Climbing Los Angeles Center
05:40PM 34.3894 -120.0197 304° West 209 241 12,300 1,740 Climbing Los Angeles Center
05:41PM 34.4272 -120.0817 306° West 207 238 14,200 1,680 Climbing Los Angeles Center
05:42PM 34.4719 -120.1269 320° Northwest 212 244 15,800 1,380 Climbing Los Angeles Center
05:43PM 34.5211 -120.1644 328° Northwest 210 242 17,100 1,140 Climbing Los Angeles Center
05:44PM 34.5706 -120.2086 324° Northwest 220 253 18,200 1,140 Climbing Los Angeles Center
05:45PM 34.6294 -120.2575 326° Northwest 227 261 19,500 1,200 Climbing Los Angeles Center
05:46PM 34.6808 -120.3033 324° Northwest 230 265 20,700 1,020 Climbing Los Angeles Center
05:47PM 34.7342 -120.3497 324° Northwest 236 272 21,700 840 Climbing Los Angeles Center
05:48PM 34.7881 -120.3967 324° Northwest 240 276 22,500 780 Climbing Los Angeles Center
05:49PM 34.8492 -120.4511 324° Northwest 244 281 23,400 660 Climbing Los Angeles Center
05:50PM 34.9122 -120.5064 324° Northwest 254 292 24,000 240 Climbing Los Angeles Center
05:51PM 34.9758 -120.5611 325° Northwest 273 314 24,000  Level Los Angeles Center
05:52PM 35.0567 -120.6317 324° Northwest 293 337 24,000  Level Los Angeles Center
05:54PM 35.1197 -120.6906 323° Northwest 290 334 24,000  Level Los Angeles Center
05:55PM 35.1836 -120.7464 324° Northwest 284 327 24,000  Level Los Angeles Center
05:56PM 35.2589 -120.8128 324° Northwest 279 321 24,000  Level Los Angeles Center
05:58PM 35.4006 -120.9383 324° Northwest 286 329 24,000  Level Los Angeles Center
05:58PM 35.4253 -120.9608 323° Northwest 286 329 24,000  Level Oakland Center
05:59PM 35.4906 -121.0189 324° Northwest 288 331 24,000  Level Oakland Center
06:00PM 35.5572 -121.0794 324° Northwest 294 338 24,000  Level Oakland Center
06:01PM 35.6256 -121.1386 325° Northwest 298 343 24,000  Level Oakland Center
06:02PM 35.6919 -121.1992 323° Northwest 298 343 24,000  Level Oakland Center
06:03PM 35.7589 -121.2589 324° Northwest 297 342 24,000  Level Oakland Center
06:04PM 35.8261 -121.3178 325° Northwest 297 342 24,000  Level Oakland Center
06:05PM 35.8925 -121.3797 323° Northwest 298 343 24,000  Level Oakland Center
06:06PM 35.9742 -121.4539 324° Northwest 302 348 24,000  Level Oakland Center
06:07PM 36.0419 -121.5144 324° Northwest 301 346 24,000  Level Oakland Center
06:08PM 36.1092 -121.5744 324° Northwest 299 344 24,000  Level Oakland Center
06:09PM 36.1764 -121.6367 323° Northwest 301 346 24,000  Level Oakland Center
06:10PM 36.2456 -121.6975 325° Northwest 303 349 24,000  Level Oakland Center
06:11PM 36.3161 -121.7583 325° Northwest 307 353 24,000  Level Oakland Center
06:13PM 36.3919 -121.8219 326° Northwest 309 356 24,000 -420 Level Oakland Center
06:13PM 36.4333 -121.8667 319° Northwest 328 377 23,400 -840 Descending Northern Cal TRACON
06:14PM 36.4653 -121.8881 332° Northwest 322 371 23,200 -540 Descending Oakland Center
06:15PM 36.5433 -121.9544 326° Northwest 335 386 22,600 -720 Descending Oakland Center
06:16PM 36.6203 -122.0228 325° Northwest 339 390 21,800 -840 Descending Oakland Center
06:16PM 36.6667 -122.0667 323° Northwest 335 386 21,400 -780 Descending Northern Cal TRACON
06:17PM 36.7500 -122.1333 327° Northwest 329 379 20,700 -660 Descending Northern Cal TRACON
06:18PM 36.7853 -122.1672 322° Northwest 328 377 20,400 -660 Descending Oakland Center
06:19PM 36.8569 -122.2322 324° Northwest 320 368 19,700 -840 Descending Oakland Center
06:20PM 36.9292 -122.2969 324° Northwest 319 367 18,800 -1,320 Descending Oakland Center
06:21PM 37.0033 -122.3633 324° Northwest 326 375 17,000 -1,680 Descending Oakland Center
06:22PM 37.0797 -122.4342 324° Northwest 338 389 15,400 -1,560 Descending Oakland Center
06:23PM 37.1664 -122.4758 339° North 337 388 13,900 -1,380 Descending Oakland Center
06:24PM 37.2478 -122.5217 336° Northwest 326 375 12,600 -1,080 Descending Oakland Center
06:25PM 37.3097 -122.5944 317° Northwest 309 356 11,700 -720 Descending Oakland Center
06:26PM 37.3847 -122.6122 349° North 289 333 11,200 -720 Descending Oakland Center
06:27PM 37.4672 -122.6036 North 255 293 10,300 -1,080 Descending Oakland Center
06:28PM 37.5306 -122.5989 North 234 269 9,000 -1,200 Descending Oakland Center
06:29PM 37.5950 -122.5958 North 231 266 7,900 -1,140 Descending Oakland Center
06:30PM 37.6500 -122.5667 23° Northeast 192 221 6,800 -1,020 Descending Northern Cal TRACON
06:31PM 37.6833 -122.5167 50° Northeast 209 241 6,000 -420 Descending Northern Cal TRACON
06:32PM 37.7167 -122.4667 50° Northeast 191 220 6,000  Level Northern Cal TRACON
06:33PM 37.7500 -122.4167 50° Northeast 195 224 6,000  Level Northern Cal TRACON
06:34PM 37.7833 -122.3667 50° Northeast 202 232 6,000  Level Northern Cal TRACON
06:35PM 37.8333 -122.3167 38° Northeast 201 231 6,000 -240 Level Northern Cal TRACON
06:36PM 37.7833 -122.3000 165° South 187 215 5,600 -960 Descending Northern Cal TRACON
06:37PM 37.7500 -122.3167 202° Southwest 178 205 4,100 -1,560 Descending Northern Cal TRACON
06:38PM 37.6892 -122.3281 188° South 176 203 2,200 -1,440 Descending Oakland Center
06:39PM 37.6514 -122.3547 209° Southwest 161 185 900 -1,020 Descending Oakland Center
06:40PM 37.6175 -122.3781 209° Southwest 145 167 200 -720 Descending Oakland Center
06:42PM 37.6191 -122.3752 13° North  Level Estimated
06:49PM 37.6167 -122.3667 North  Level FlightAware Approximate